createdAt,value
2023-01-01T00:02:05.049Z,17.15
2023-01-01T00:07:07.737Z,17.26
2023-01-01T00:12:10.350Z,17.27
2023-01-01T00:17:14.274Z,17.22
2023-01-01T00:22:52.655Z,17.20
2023-01-01T00:27:39.838Z,17.14
2023-01-01T00:32:43.775Z,17.10
2023-01-01T00:37:58.777Z,17.13
2023-01-01T00:43:01.347Z,17.16
2023-01-01T00:48:05.578Z,17.16
2023-01-01T00:53:08.128Z,17.04
2023-01-01T00:58:11.876Z,17.03
2023-01-01T01:03:28.848Z,17.07
2023-01-01T01:08:33.327Z,17.06
2023-01-01T01:13:36.207Z,17.05
2023-01-01T01:18:40.314Z,16.97
2023-01-01T01:23:42.913Z,17.02
2023-01-01T01:28:49.811Z,17.02
2023-01-01T01:33:54.357Z,17.05
2023-01-01T01:38:57.413Z,16.87
2023-01-01T01:44:03.316Z,16.94
2023-01-01T01:49:16.963Z,16.76
2023-01-01T01:54:23.650Z,16.69
2023-01-01T01:59:28.840Z,16.78
2023-01-01T02:04:33.034Z,16.76
2023-01-01T02:09:35.679Z,16.63
2023-01-01T02:14:38.581Z,16.63
2023-01-01T02:20:01.897Z,16.62
2023-01-01T02:25:19.182Z,16.68
2023-01-01T02:30:23.336Z,16.68
2023-01-01T02:35:38.341Z,16.56
2023-01-01T02:40:45.810Z,16.61
2023-01-01T02:45:50.467Z,16.60
2023-01-01T02:50:53.260Z,16.47
2023-01-01T02:56:03.166Z,16.58
2023-01-01T03:01:14.804Z,16.54
2023-01-01T03:06:27.100Z,16.46
2023-01-01T03:11:36.408Z,16.39
2023-01-01T03:16:49.302Z,16.38
2023-01-01T03:21:56.857Z,16.45
2023-01-01T03:27:03.103Z,16.11
2023-01-01T03:32:09.853Z,16.42
2023-01-01T03:37:18.347Z,16.39
2023-01-01T03:42:30.061Z,16.39
2023-01-01T03:47:34.259Z,16.31
2023-01-01T03:52:44.430Z,16.27
2023-01-01T03:57:57.496Z,16.36
2023-01-01T04:03:06.862Z,16.24
2023-01-01T04:08:11.386Z,16.34
2023-01-01T04:13:14.161Z,16.24
2023-01-01T04:18:18.188Z,16.22
2023-01-01T04:23:20.820Z,16.11
2023-01-01T04:28:23.366Z,16.08
2023-01-01T04:33:27.481Z,16.13
2023-01-01T04:38:30.261Z,16.16
2023-01-01T04:43:33.127Z,16.14
2023-01-01T04:48:37.427Z,16.10
2023-01-01T04:53:40.352Z,16.00
2023-01-01T04:58:44.518Z,15.99
2023-01-01T05:03:49.487Z,15.97
2023-01-01T05:08:54.490Z,15.96
2023-01-01T05:13:59.574Z,16.07
2023-01-01T05:19:03.948Z,16.06
2023-01-01T05:24:08.891Z,16.03
2023-01-01T05:29:16.662Z,15.75
2023-01-01T05:34:21.202Z,15.96
2023-01-01T05:39:23.769Z,15.99
2023-01-01T05:44:26.315Z,15.91
2023-01-01T05:49:30.245Z,15.96
2023-01-01T05:54:32.796Z,15.96
2023-01-01T05:59:35.372Z,15.92
2023-01-01T06:04:39.441Z,15.81
2023-01-01T06:09:43.825Z,15.86
2023-01-01T06:14:46.383Z,15.81
2023-01-01T06:19:50.681Z,15.93
2023-01-01T06:24:53.719Z,15.92
2023-01-01T06:29:57.595Z,15.88
2023-01-01T06:35:01.580Z,15.72
2023-01-01T06:40:05.682Z,15.85
2023-01-01T06:45:10.069Z,15.91
2023-01-01T06:50:14.051Z,15.84
2023-01-01T06:55:17.305Z,15.72
2023-01-01T07:00:20.054Z,15.74
2023-01-01T07:05:24.291Z,15.62
2023-01-01T07:10:26.861Z,15.62
2023-01-01T07:15:29.584Z,15.76
2023-01-01T07:20:33.583Z,15.50
2023-01-01T07:25:37.258Z,15.39
2023-01-01T07:30:39.857Z,15.27
2023-01-01T07:35:45.670Z,15.07
2023-01-01T07:40:48.339Z,15.22
2023-01-01T07:45:51.345Z,15.12
2023-01-01T07:50:55.257Z,15.12
2023-01-01T07:55:58.479Z,14.84
2023-01-01T08:01:01.664Z,14.80
2023-01-01T08:06:09.770Z,14.83
2023-01-01T08:11:12.524Z,14.73
2023-01-01T08:16:15.600Z,14.79
2023-01-01T08:21:19.522Z,14.92
2023-01-01T08:26:30.115Z,14.97
2023-01-01T08:31:32.857Z,15.00
2023-01-01T08:36:40.490Z,15.14
2023-01-01T08:41:43.081Z,15.04
2023-01-01T08:46:45.715Z,15.09
2023-01-01T08:51:50.049Z,14.98
2023-01-01T08:56:53.077Z,14.95
2023-01-01T09:01:55.915Z,14.90
2023-01-01T09:06:59.893Z,15.02
2023-01-01T09:12:07.073Z,14.85
2023-01-01T09:17:09.672Z,15.02
2023-01-01T09:22:14.114Z,14.93
2023-01-01T09:27:16.685Z,14.90
2023-01-01T09:32:19.554Z,15.03
2023-01-01T09:37:24.068Z,15.10
2023-01-01T09:42:36.777Z,14.98
2023-01-01T09:47:42.647Z,15.14
2023-01-01T09:52:53.496Z,15.24
2023-01-01T09:57:57.696Z,15.12
2023-01-01T10:03:11.670Z,15.11
2023-01-01T10:08:35.354Z,15.21
2023-01-01T10:13:42.131Z,15.26
2023-01-01T10:18:48.882Z,15.31
2023-01-01T10:23:59.000Z,15.22
2023-01-01T10:29:06.337Z,15.32
2023-01-01T10:34:18.553Z,15.43
2023-01-01T10:39:23.280Z,15.47
2023-01-01T10:44:30.816Z,15.19
2023-01-01T10:49:33.415Z,15.48
2023-01-01T10:54:39.805Z,15.72
2023-01-01T10:59:49.818Z,15.56
2023-01-01T11:05:21.095Z,15.66
2023-01-01T11:10:28.893Z,15.80
2023-01-01T11:15:38.375Z,15.77
2023-01-01T11:20:42.825Z,15.71
2023-01-01T11:26:04.807Z,15.71
2023-01-01T11:31:15.372Z,15.60
2023-01-01T11:36:27.478Z,15.40
2023-01-01T11:41:42.440Z,15.61
2023-01-01T11:46:47.434Z,15.74
2023-01-01T11:51:50.476Z,15.61
2023-01-01T11:56:57.983Z,15.61
2023-01-01T12:02:04.328Z,15.80
2023-01-01T12:07:09.215Z,15.26
2023-01-01T12:12:22.725Z,15.68
2023-01-01T12:17:28.982Z,15.61
2023-01-01T12:22:32.572Z,15.67
2023-01-01T12:27:56.272Z,15.47
2023-01-01T12:33:22.320Z,15.61
2023-01-01T12:38:41.946Z,15.49
2023-01-01T12:43:58.906Z,15.42
2023-01-01T12:49:28.263Z,15.67
2023-01-01T12:55:10.074Z,15.68
2023-01-01T13:00:18.218Z,15.57
2023-01-01T13:05:26.428Z,15.53
2023-01-01T13:10:35.113Z,15.64
2023-01-01T13:15:48.574Z,15.61
2023-01-01T13:21:04.452Z,15.61
2023-01-01T13:26:37.548Z,15.66
2023-01-01T13:32:13.470Z,15.67
2023-01-01T13:37:32.860Z,15.65
2023-01-01T13:42:39.927Z,15.41
2023-01-01T13:48:05.048Z,15.50
2023-01-01T13:53:50.775Z,15.59
2023-01-01T13:59:21.058Z,15.46
2023-01-01T14:04:33.651Z,15.35
2023-01-01T14:09:37.201Z,15.26
2023-01-01T14:14:40.306Z,15.23
2023-01-01T14:19:45.055Z,15.25
2023-01-01T14:24:49.847Z,15.21
2023-01-01T14:29:53.430Z,15.25
2023-01-01T14:35:03.227Z,15.43
2023-01-01T14:40:08.984Z,15.27
2023-01-01T14:45:16.722Z,15.20
2023-01-01T14:50:29.883Z,15.22
2023-01-01T14:55:36.196Z,15.19
2023-01-01T15:00:39.950Z,15.10
2023-01-01T15:05:49.607Z,15.08
2023-01-01T15:10:54.925Z,15.07
2023-01-01T15:16:15.674Z,15.05
2023-01-01T15:21:34.778Z,15.04
2023-01-01T15:26:42.745Z,14.94
2023-01-01T15:31:50.442Z,14.96
2023-01-01T15:36:57.499Z,14.97
2023-01-01T15:42:00.210Z,14.91
2023-01-01T15:47:12.508Z,14.86
2023-01-01T15:52:24.623Z,14.90
2023-01-01T15:57:28.188Z,14.91
2023-01-01T16:02:34.759Z,14.99
2023-01-01T16:07:39.256Z,14.96
2023-01-01T16:12:42.305Z,15.01
2023-01-01T16:17:45.532Z,14.91
2023-01-01T16:22:50.361Z,15.03
2023-01-01T16:27:55.216Z,14.93
2023-01-01T16:33:01.063Z,14.86
2023-01-01T16:38:05.706Z,14.81
2023-01-01T16:43:16.770Z,14.69
2023-01-01T16:48:20.250Z,14.67
2023-01-01T16:53:24.297Z,14.62
2023-01-01T17:03:50.779Z,14.31
2023-01-01T17:08:56.136Z,14.17
2023-01-01T17:14:00.063Z,14.11
2023-01-01T17:19:18.788Z,14.20
2023-01-01T17:24:24.118Z,14.07
2023-01-01T17:29:27.297Z,14.03
2023-01-01T17:34:29.937Z,13.98
2023-01-01T17:39:34.117Z,13.91
2023-01-01T17:44:36.750Z,13.79
2023-01-01T17:49:39.892Z,13.76
2023-01-01T17:54:43.849Z,13.73
2023-01-01T17:59:46.640Z,13.67
2023-01-01T18:04:49.796Z,13.57
2023-01-01T18:09:54.186Z,13.65
2023-01-01T18:14:57.257Z,13.63
2023-01-01T18:20:00.359Z,13.67
2023-01-01T18:25:06.142Z,13.48
2023-01-01T18:30:10.023Z,13.58
2023-01-01T18:35:16.514Z,12.92
2023-01-01T18:40:22.200Z,13.44
2023-01-01T18:45:27.052Z,13.49
2023-01-01T18:50:39.114Z,13.52
2023-01-01T18:55:43.164Z,13.52
2023-01-01T19:00:46.157Z,13.56
2023-01-01T19:05:49.246Z,13.42
2023-01-01T19:10:58.464Z,13.43
2023-01-01T19:16:19.825Z,13.04
2023-01-01T19:21:32.021Z,13.50
2023-01-01T19:26:49.853Z,13.04
2023-01-01T19:31:59.881Z,13.48
2023-01-01T19:37:07.308Z,13.48
2023-01-01T19:42:19.535Z,13.51
2023-01-01T19:47:25.614Z,13.56
2023-01-01T19:52:33.751Z,13.61
2023-01-01T19:57:52.232Z,13.63
2023-01-01T20:03:07.260Z,13.61
2023-01-01T20:08:41.441Z,13.57
2023-01-01T20:13:47.575Z,13.56
2023-01-01T20:18:51.036Z,13.60
2023-01-01T20:23:54.440Z,13.58
2023-01-01T20:29:27.241Z,13.56
2023-01-01T20:34:31.295Z,13.58
2023-01-01T20:39:36.185Z,13.59
2023-01-01T20:44:42.631Z,13.51
2023-01-01T20:49:48.164Z,13.60
2023-01-01T20:54:52.819Z,13.54
2023-01-01T21:00:05.442Z,13.52
2023-01-01T21:05:17.196Z,13.52
2023-01-01T21:10:27.735Z,13.33
2023-01-01T21:15:39.925Z,13.62
2023-01-01T21:20:52.880Z,13.80
2023-01-01T21:25:59.297Z,13.72
2023-01-01T21:31:12.119Z,13.68
2023-01-01T21:36:25.804Z,13.65
2023-01-01T21:41:30.932Z,13.60
2023-01-01T21:46:56.847Z,13.50
2023-01-01T21:52:19.212Z,13.57
2023-01-01T21:57:33.129Z,13.74
2023-01-01T22:02:51.559Z,13.76
2023-01-01T22:08:01.939Z,13.78
2023-01-01T22:13:17.823Z,13.68
2023-01-01T22:18:30.769Z,13.64
2023-01-01T22:23:40.076Z,13.87
2023-01-01T22:28:44.516Z,13.94
2023-01-01T22:33:52.169Z,13.99
2023-01-01T22:39:02.787Z,13.83
2023-01-01T22:44:10.432Z,13.90
2023-01-01T22:49:20.811Z,13.54
2023-01-01T22:54:25.137Z,13.81
2023-01-01T22:59:32.288Z,13.91
2023-01-01T23:04:40.408Z,13.96
2023-01-01T23:09:45.066Z,13.91
2023-01-01T23:15:07.585Z,13.91
2023-01-01T23:20:20.297Z,14.02
2023-01-01T23:25:24.600Z,13.65
2023-01-01T23:30:27.208Z,13.94
2023-01-01T23:35:31.164Z,13.91
2023-01-01T23:40:33.755Z,13.98
2023-01-01T23:45:36.618Z,13.93
2023-01-01T23:50:40.948Z,14.07
2023-01-01T23:55:44.821Z,14.14
